Time;durP1;ratioP1;P1;durP2;ratioP2;P2;SDS_P1;SDS_P2;PMS_P1;PMS_P2;Temp;Humidity;BMP_temperature;BMP_pressure;BME280_temperature;BME280_humidity;BME280_pressure;Samples;Min_cycle;Max_cycle;Signal;HPM_P1;HPM_P2
2022/08/14 00:01:49;;;;;;;13.18;10.00;;;23.80;99.90;;;;;;5114230;28;20258;-74
2022/08/14 00:04:14;;;;;;;18.67;11.35;;;23.80;99.90;;;;;;5113739;28;20622;-74
2022/08/14 00:06:40;;;;;;;10.50;7.97;;;23.90;99.90;;;;;;5095698;28;20167;-74
2022/08/14 00:09:06;;;;;;;3.58;3.22;;;23.80;99.90;;;;;;5113854;28;20202;-74
2022/08/14 00:11:32;;;;;;;4.40;4.10;;;23.80;99.90;;;;;;5113997;28;20210;-73
2022/08/14 00:13:59;;;;;;;4.68;4.28;;;23.90;99.90;;;;;;5113269;28;20159;-74
2022/08/14 00:16:24;;;;;;;7.25;6.55;;;23.90;99.90;;;;;;5088010;28;20216;-74
2022/08/14 00:18:51;;;;;;;7.45;6.47;;;23.80;99.90;;;;;;5072872;28;20518;-74
2022/08/14 00:21:17;;;;;;;9.70;6.57;;;23.90;99.90;;;;;;5073189;28;20263;-74
2022/08/14 00:23:42;;;;;;;6.57;5.20;;;23.80;99.90;;;;;;5073225;28;20199;-74
2022/08/14 00:26:08;;;;;;;3.42;3.10;;;23.80;99.90;;;;;;5073124;28;20601;-74
2022/08/14 00:28:35;;;;;;;3.10;2.88;;;23.80;99.90;;;;;;5073176;28;20169;-74
2022/08/14 00:31:00;;;;;;;3.75;3.50;;;23.90;99.90;;;;;;5073132;28;20250;-74
2022/08/14 00:33:28;;;;;;;4.45;3.17;;;23.90;99.90;;;;;;5072856;28;20168;-73
2022/08/14 00:35:54;;;;;;;3.30;3.10;;;23.90;99.90;;;;;;5073148;28;20165;-75
2022/08/14 00:38:20;;;;;;;4.00;3.22;;;24.00;99.90;;;;;;5072983;28;20203;-74
2022/08/14 00:40:46;;;;;;;3.17;2.88;;;24.00;99.90;;;;;;5071669;28;20180;-74
2022/08/14 00:43:13;;;;;;;4.50;3.17;;;24.00;99.90;;;;;;5071848;28;20211;-74
2022/08/14 00:45:39;;;;;;;3.28;3.08;;;24.00;99.90;;;;;;5073065;28;20289;-74
2022/08/14 00:48:05;;;;;;;4.30;2.90;;;24.00;99.90;;;;;;5072516;28;20222;-74
2022/08/14 00:50:31;;;;;;;3.70;2.88;;;24.00;99.90;;;;;;5072906;28;20204;-74
2022/08/14 00:53:01;;;;;;;4.28;3.10;;;24.00;99.90;;;;;;5072799;28;20173;-74
2022/08/14 00:55:27;;;;;;;3.20;3.00;;;23.90;99.90;;;;;;5072980;28;20636;-74
2022/08/14 01:00:39;;;;;;;4.68;3.20;;;23.90;99.90;;;;;;5072946;28;20174;-75
2022/08/14 01:03:07;;;;;;;3.78;3.05;;;23.90;99.90;;;;;;5072773;28;20169;-75
2022/08/14 01:05:33;;;;;;;9.63;4.80;;;23.90;99.90;;;;;;5072881;28;20171;-75
2022/08/14 01:08:00;;;;;;;6.00;5.60;;;23.90;99.90;;;;;;5072699;28;20186;-75
2022/08/14 01:10:49;;;;;;;6.25;5.68;;;23.80;99.90;;;;;;5071527;28;20576;-74
2022/08/14 01:13:15;;;;;;;5.32;4.82;;;23.70;99.90;;;;;;5072936;28;20179;-74
2022/08/14 01:15:46;;;;;;;5.03;4.53;;;23.60;99.90;;;;;;5072476;28;20225;-74
2022/08/14 01:21:05;;;;;;;4.72;4.28;;;23.50;99.90;;;;;;5113491;28;20178;-74
2022/08/14 01:23:32;;;;;;;4.88;3.60;;;23.50;99.90;;;;;;5113583;28;20187;-74
2022/08/14 01:25:59;;;;;;;8.98;3.70;;;23.40;99.90;;;;;;5117161;28;20623;-73
2022/08/14 01:28:25;;;;;;;6.35;3.50;;;23.30;99.90;;;;;;5098474;28;20195;-73
2022/08/14 01:30:56;;;;;;;5.35;3.88;;;23.10;99.90;;;;;;5116722;28;20198;-73
2022/08/14 01:33:30;;;;;;;4.13;3.90;;;22.80;1.00;;;;;;5116998;28;20247;-73
2022/08/14 01:35:59;;;;;;;9.27;3.80;;;22.70;1.00;;;;;;5098783;28;20171;-73
2022/08/14 01:38:27;;;;;;;4.07;3.75;;;22.50;1.00;;;;;;5116893;28;20174;-74
2022/08/14 01:40:52;;;;;;;4.80;3.30;;;22.40;1.00;;;;;;5116793;28;20156;-74
2022/08/14 01:43:18;;;;;;;3.85;3.53;;;22.40;1.00;;;;;;5116751;28;20247;-74
2022/08/14 01:45:50;;;;;;;4.50;3.40;;;22.30;1.00;;;;;;5116339;28;20167;-73
2022/08/14 01:48:16;;;;;;;4.70;3.60;;;22.20;12.00;;;;;;5116631;28;20176;-73
2022/08/14 01:50:42;;;;;;;4.03;3.60;;;22.10;92.50;;;;;;5097902;28;20207;-73
2022/08/14 01:53:08;;;;;;;5.25;3.53;;;22.10;99.90;;;;;;5116686;28;20499;-73
2022/08/14 01:55:35;;;;;;;4.82;3.50;;;22.10;99.90;;;;;;5116492;28;20634;-75
2022/08/14 01:58:01;;;;;;;4.03;3.60;;;22.00;99.90;;;;;;5116452;28;20167;-74
2022/08/14 02:00:28;;;;;;;5.03;3.70;;;21.90;99.90;;;;;;5116243;28;20171;-73
2022/08/14 02:02:55;;;;;;;4.35;3.78;;;21.80;1.00;;;;;;5116329;28;20171;-74
2022/08/14 02:05:28;;;;;;;4.43;3.67;;;21.60;1.00;;;;;;5116277;28;20320;-73
2022/08/14 02:07:54;;;;;;;4.30;4.00;;;21.60;1.00;;;;;;5116288;28;20171;-73
2022/08/14 02:10:20;;;;;;;3.92;3.63;;;21.60;1.00;;;;;;5116191;28;20202;-74
2022/08/14 02:12:47;;;;;;;5.22;3.80;;;21.50;1.00;;;;;;5116357;28;20246;-74
2022/08/14 02:15:13;;;;;;;7.47;3.88;;;21.40;94.20;;;;;;5115731;28;20166;-74
2022/08/14 02:17:40;;;;;;;4.72;3.92;;;21.40;1.00;;;;;;5079813;28;20251;-74
2022/08/14 02:20:09;;;;;;;7.35;4.00;;;21.40;87.70;;;;;;5075485;28;20173;-74
2022/08/14 02:22:37;;;;;;;5.55;3.60;;;21.30;99.90;;;;;;5075456;28;20246;-73
2022/08/14 02:25:03;;;;;;;4.13;3.75;;;21.30;99.90;;;;;;5075485;28;20172;-75
2022/08/14 02:27:29;;;;;;;4.32;4.03;;;21.30;99.90;;;;;;5073933;28;20193;-74
2022/08/14 02:29:55;;;;;;;4.28;3.90;;;21.30;99.90;;;;;;5074836;28;20706;-74
2022/08/14 02:32:21;;;;;;;4.95;3.78;;;21.30;99.90;;;;;;5075052;28;20244;-74
2022/08/14 02:34:47;;;;;;;4.40;3.83;;;21.20;1.00;;;;;;5074939;28;20248;-74
2022/08/14 02:37:12;;;;;;;4.88;3.70;;;21.10;99.90;;;;;;5073108;28;20200;-74
2022/08/14 02:39:43;;;;;;;4.82;3.72;;;21.00;99.90;;;;;;5073759;28;20204;-74
2022/08/14 02:42:12;;;;;;;7.60;3.70;;;20.90;99.90;;;;;;5075192;28;20164;-74
2022/08/14 02:44:39;;;;;;;4.22;3.90;;;20.80;1.00;;;;;;5074743;28;20230;-74
2022/08/14 02:47:07;;;;;;;4.30;3.90;;;20.80;1.00;;;;;;5074760;28;20219;-73
2022/08/14 02:49:33;;;;;;;4.15;3.75;;;20.80;8.20;;;;;;5074909;28;20246;-73
2022/08/14 02:52:00;;;;;;;4.97;4.05;;;20.70;1.00;;;;;;5074833;28;20169;-74
2022/08/14 02:54:26;;;;;;;4.60;3.42;;;20.70;99.90;;;;;;5073536;28;20214;-74
2022/08/14 02:56:55;;;;;;;5.80;4.20;;;20.70;99.90;;;;;;5074322;28;20217;-74
2022/08/14 02:59:23;;;;;;;4.38;3.80;;;20.60;99.90;;;;;;5074558;28;20218;-74
2022/08/14 03:01:49;;;;;;;5.10;3.97;;;20.60;1.00;;;;;;5074673;28;20173;-75
2022/08/14 03:04:15;;;;;;;4.15;3.80;;;20.60;99.90;;;;;;5074630;28;20176;-74
2022/08/14 03:06:44;;;;;;;5.18;4.15;;;20.60;24.00;;;;;;5074873;28;20528;-74
2022/08/14 03:09:10;;;;;;;4.20;3.83;;;20.60;1.00;;;;;;5074584;28;20173;-74
2022/08/14 03:11:37;;;;;;;4.15;3.65;;;20.50;1.00;;;;;;5074139;28;20230;-74
2022/08/14 03:14:03;;;;;;;5.22;4.05;;;20.50;78.50;;;;;;5074236;28;20169;-74
2022/08/14 03:16:34;;;;;;;5.03;3.80;;;20.60;99.90;;;;;;5072772;28;20315;-74
2022/08/14 03:19:02;;;;;;;6.15;4.25;;;20.60;99.90;;;;;;5074157;28;20592;-74
2022/08/14 03:21:31;;;;;;;5.03;3.90;;;20.50;1.00;;;;;;5074169;28;20181;-74
2022/08/14 03:24:13;;;;;;;4.50;4.10;;;20.50;1.00;;;;;;5073117;28;20646;-74
2022/08/14 03:26:40;;;;;;;5.60;5.00;;;20.50;1.00;;;;;;5073746;28;20188;-74
2022/08/14 03:29:07;;;;;;;6.38;4.20;;;20.50;1.00;;;;;;5074046;28;20230;-74
2022/08/14 03:31:35;;;;;;;4.72;4.38;;;20.40;7.60;;;;;;5074168;28;20164;-74
2022/08/14 03:34:02;;;;;;;8.87;4.37;;;20.40;1.00;;;;;;5072982;28;20226;-74
2022/08/14 03:36:31;;;;;;;8.18;4.60;;;20.30;1.00;;;;;;5073706;28;20608;-74
2022/08/14 03:38:58;;;;;;;4.20;3.90;;;20.30;99.90;;;;;;5073833;28;20175;-73
2022/08/14 03:41:26;;;;;;;4.75;3.95;;;20.20;1.00;;;;;;5073236;28;20280;-73
2022/08/14 03:43:56;;;;;;;6.75;4.57;;;20.20;99.90;;;;;;5073812;28;20165;-73
2022/08/14 03:46:25;;;;;;;6.07;4.13;;;20.20;99.90;;;;;;5073767;28;20191;-73
2022/08/14 03:48:53;;;;;;;4.43;4.13;;;20.20;86.10;;;;;;5073715;28;20168;-73
2022/08/14 03:51:19;;;;;;;6.15;4.30;;;20.20;1.00;;;;;;5073723;28;20197;-74
2022/08/14 03:53:46;;;;;;;6.07;4.20;;;20.20;1.00;;;;;;5073162;28;20255;-73
2022/08/14 03:56:14;;;;;;;4.97;4.43;;;20.20;55.20;;;;;;5073184;28;20183;-73
2022/08/14 03:58:44;;;;;;;4.90;4.40;;;20.20;99.90;;;;;;5073456;28;20167;-74
2022/08/14 04:01:13;;;;;;;6.38;4.40;;;20.20;99.90;;;;;;5073800;28;20177;-72
2022/08/14 04:03:39;;;;;;;7.50;3.70;;;20.10;1.00;;;;;;5073552;28;20524;-73
2022/08/14 04:06:07;;;;;;;5.90;4.33;;;20.20;99.90;;;;;;5073369;28;20179;-74
2022/08/14 04:08:38;;;;;;;4.80;4.20;;;20.20;1.00;;;;;;5073304;28;20634;-74
2022/08/14 04:11:05;;;;;;;4.25;3.85;;;20.10;1.00;;;;;;5071331;28;20212;-74
2022/08/14 04:13:34;;;;;;;3.83;3.53;;;20.10;99.90;;;;;;5073571;28;20176;-74
2022/08/14 04:16:01;;;;;;;4.20;3.80;;;20.20;99.90;;;;;;5072580;28;20164;-73
2022/08/14 04:18:26;;;;;;;4.87;3.87;;;20.20;8.60;;;;;;5113737;28;20176;-74
2022/08/14 04:20:52;;;;;;;4.53;3.63;;;20.20;1.00;;;;;;5113664;28;20262;-75
2022/08/14 04:23:18;;;;;;;4.73;4.00;;;20.10;1.00;;;;;;5113699;28;20694;-75
2022/08/14 04:25:43;;;;;;;6.67;4.07;;;20.10;96.10;;;;;;5113351;28;20171;-73
2022/08/14 04:28:10;;;;;;;6.23;4.10;;;20.10;99.90;;;;;;5113559;28;20545;-73
2022/08/14 04:30:39;;;;;;;4.30;3.60;;;20.10;1.00;;;;;;5113610;28;20290;-74
2022/08/14 04:33:07;;;;;;;6.47;4.13;;;20.10;1.00;;;;;;5113698;28;20231;-74
2022/08/14 04:35:33;;;;;;;6.15;4.00;;;20.10;99.90;;;;;;5095417;28;20220;-74
2022/08/14 04:43:37;;;;;;;5.75;3.88;;;20.20;1.00;;;;;;5113878;28;20214;-73
2022/08/14 04:46:15;;;;;;;5.00;3.20;;;20.40;99.90;;;;;;5113182;28;20159;-74
2022/08/14 04:48:40;;;;;;;8.23;4.13;;;20.90;1.00;;;;;;5113417;28;20254;-73
2022/08/14 04:51:09;;;;;;;5.55;3.80;;;21.40;1.00;;;;;;5113305;28;20301;-73
2022/08/14 04:53:37;;;;;;;4.07;3.28;;;22.10;99.90;;;;;;5112952;28;20155;-74
2022/08/14 04:56:04;;;;;;;6.50;3.80;;;22.90;1.00;;;;;;5094858;28;20168;-74
2022/08/14 04:58:31;;;;;;;5.22;3.55;;;23.40;1.00;;;;;;5113515;28;20688;-75
2022/08/14 05:00:58;;;;;;;6.90;3.60;;;24.20;99.90;;;;;;5117121;28;20178;-74
2022/08/14 05:03:30;;;;;;;4.10;3.22;;;24.90;99.90;;;;;;5117362;28;20175;-75
2022/08/14 05:05:57;;;;;;;5.25;3.65;;;25.40;99.90;;;;;;5117279;28;20160;-75
2022/08/14 05:08:23;;;;;;;6.38;3.78;;;25.80;99.90;;;;;;5116775;28;20262;-74
2022/08/14 05:10:53;;;;;;;7.93;3.53;;;25.90;99.90;;;;;;5116909;28;20640;-74
2022/08/14 05:13:23;;;;;;;4.20;3.90;;;25.90;99.90;;;;;;5098792;28;20195;-75
2022/08/14 05:15:51;;;;;;;7.60;4.15;;;25.30;99.90;;;;;;5117312;28;20167;-75
2022/08/14 05:18:22;;;;;;;4.35;3.30;;;25.20;99.90;;;;;;5116797;28;20314;-74
2022/08/14 05:20:50;;;;;;;6.60;3.78;;;25.90;99.90;;;;;;5117144;28;20211;-74
2022/08/14 05:23:23;;;;;;;5.97;3.47;;;26.50;99.90;;;;;;5116460;28;20208;-75
2022/08/14 05:25:53;;;;;;;4.40;4.00;;;26.00;99.90;;;;;;5117125;28;20171;-75
2022/08/14 05:28:24;;;;;;;5.95;3.60;;;25.20;99.90;;;;;;5116938;28;20491;-76
2022/08/14 05:30:54;;;;;;;3.90;3.65;;;25.80;99.90;;;;;;5116999;28;20289;-76
2022/08/14 05:33:23;;;;;;;6.60;3.83;;;26.50;99.90;;;;;;5116805;28;20300;-76
2022/08/14 05:35:50;;;;;;;7.47;3.60;;;27.80;99.90;;;;;;5116587;28;20627;-77
2022/08/14 05:38:19;;;;;;;3.70;3.40;;;29.30;99.90;;;;;;5116570;28;20690;-79
2022/08/14 05:40:46;;;;;;;5.00;3.22;;;30.60;99.90;;;;;;5116761;28;20167;-78
2022/08/14 05:43:13;;;;;;;4.32;3.20;;;31.40;77.60;;;;;;5098474;28;20534;-80
2022/08/14 05:45:39;;;;;;;3.92;3.60;;;32.40;50.20;;;;;;5116538;28;20707;-78
2022/08/14 05:48:06;;;;;;;4.18;3.17;;;33.20;23.90;;;;;;5098319;28;20175;-79
2022/08/14 05:50:32;;;;;;;7.82;3.30;;;33.70;11.40;;;;;;5116309;28;20218;-79
2022/08/14 05:52:59;;;;;;;3.83;2.92;;;34.40;1.80;;;;;;5097919;28;20168;-79
2022/08/14 05:55:24;;;;;;;3.78;3.10;;;35.20;1.00;;;;;;5116548;28;20160;-78
2022/08/14 05:57:57;;;;;;;3.72;2.90;;;35.70;1.00;;;;;;5116406;28;20640;-78
2022/08/14 06:00:27;;;;;;;5.15;2.70;;;35.80;1.00;;;;;;5116175;28;20167;-77
2022/08/14 06:02:55;;;;;;;9.00;3.42;;;36.30;1.00;;;;;;5116063;28;20164;-77
2022/08/14 06:05:21;;;;;;;2.90;2.50;;;37.20;1.00;;;;;;5116039;28;20195;-77
2022/08/14 06:07:47;;;;;;;3.13;2.72;;;37.50;1.00;;;;;;5115651;28;20622;-77
2022/08/14 06:10:12;;;;;;;3.03;2.72;;;37.40;1.00;;;;;;5114728;28;20399;-76
2022/08/14 06:12:38;;;;;;;4.47;2.60;;;37.10;1.00;;;;;;5115886;28;20164;-77
2022/08/14 06:15:08;;;;;;;2.75;2.55;;;34.50;1.00;;;;;;5115744;28;20206;-76
2022/08/14 06:17:51;;;;;;;2.97;2.40;;;33.20;1.00;;;;;;5115331;28;20219;-78
2022/08/14 06:20:18;;;;;;;3.78;2.40;;;33.30;1.00;;;;;;5115630;28;20254;-78
2022/08/14 06:22:44;;;;;;;3.00;2.80;;;33.70;1.00;;;;;;5115814;28;20255;-78
2022/08/14 06:25:12;;;;;;;5.18;2.65;;;33.60;1.00;;;;;;5115711;28;20167;-78
2022/08/14 06:27:39;;;;;;;2.92;2.47;;;33.90;1.00;;;;;;5115546;28;20210;-78
2022/08/14 06:30:07;;;;;;;3.22;2.92;;;33.60;1.00;;;;;;5116205;28;20207;-78
2022/08/14 06:32:33;;;;;;;3.63;2.70;;;34.20;1.00;;;;;;5098334;28;20164;-79
2022/08/14 06:34:59;;;;;;;3.45;3.15;;;34.10;1.00;;;;;;5097343;28;20179;-78
2022/08/14 06:37:26;;;;;;;3.38;2.70;;;34.60;1.00;;;;;;5115457;28;20725;-78
2022/08/14 06:39:52;;;;;;;3.33;3.10;;;34.70;1.00;;;;;;5115636;28;20258;-78
2022/08/14 06:42:17;;;;;;;5.38;3.22;;;35.50;1.00;;;;;;5115466;28;20244;-78
2022/08/14 06:44:43;;;;;;;3.58;3.28;;;36.40;1.00;;;;;;5097157;28;20551;-78
2022/08/14 06:47:09;;;;;;;5.68;3.20;;;36.30;1.00;;;;;;5115268;28;20171;-78
2022/08/14 06:49:36;;;;;;;5.15;3.53;;;37.00;1.00;;;;;;5114858;28;20191;-78
2022/08/14 06:52:02;;;;;;;3.90;3.45;;;37.40;1.00;;;;;;5115051;28;20583;-79
2022/08/14 06:54:27;;;;;;;6.18;3.67;;;37.10;1.00;;;;;;5115338;28;20174;-77
2022/08/14 06:56:53;;;;;;;4.20;3.53;;;37.00;1.00;;;;;;5113891;28;20626;-78
2022/08/14 06:59:19;;;;;;;3.67;3.38;;;37.10;1.00;;;;;;5096436;28;20185;-78
2022/08/14 07:07:12;;;;;;;4.03;3.70;;;39.40;1.00;;;;;;5114843;28;20177;-77
2022/08/14 07:09:38;;;;;;;3.53;3.33;;;38.30;1.00;;;;;;5114582;28;20198;-77
2022/08/14 07:12:04;;;;;;;3.50;3.30;;;38.00;1.00;;;;;;5114338;28;20611;-78
2022/08/14 07:14:30;;;;;;;3.90;3.60;;;36.70;1.00;;;;;;5096696;28;20181;-78
2022/08/14 07:16:56;;;;;;;3.38;3.28;;;35.90;1.00;;;;;;5114659;28;20219;-78
2022/08/14 07:19:22;;;;;;;4.85;3.15;;;36.30;1.00;;;;;;5114170;28;20522;-78
2022/08/14 07:21:49;;;;;;;4.18;3.55;;;37.30;1.00;;;;;;5114045;28;20300;-79
2022/08/14 07:24:15;;;;;;;2.90;2.70;;;38.70;1.00;;;;;;5114028;28;20194;-78
2022/08/14 07:26:40;;;;;;;3.13;3.03;;;40.10;1.00;;;;;;5114507;28;20186;-77
2022/08/14 07:29:06;;;;;;;2.88;2.70;;;39.70;1.00;;;;;;5114593;28;20171;-77
2022/08/14 07:31:31;;;;;;;2.90;2.70;;;39.20;1.00;;;;;;5114508;28;20605;-76
2022/08/14 07:33:57;;;;;;;2.70;2.50;;;38.90;1.00;;;;;;5114307;28;20159;-76
2022/08/14 07:36:23;;;;;;;2.50;2.40;;;38.10;1.00;;;;;;5114855;28;20541;-76
2022/08/14 07:38:49;;;;;;;2.70;2.50;;;37.30;1.00;;;;;;5114362;28;20167;-77
2022/08/14 07:41:15;;;;;;;2.92;2.72;;;37.60;1.00;;;;;;5113537;28;20182;-77
2022/08/14 07:43:42;;;;;;;2.70;2.50;;;38.00;1.00;;;;;;5115328;28;20163;-77
2022/08/14 07:46:07;;;;;;;3.17;2.88;;;38.10;1.00;;;;;;5114359;28;20276;-76
2022/08/14 07:48:38;;;;;;;3.58;2.83;;;38.60;1.00;;;;;;5114403;28;20254;-77
2022/08/14 07:51:04;;;;;;;2.95;2.53;;;39.30;1.00;;;;;;5113644;28;20211;-77
2022/08/14 07:53:30;;;;;;;2.97;2.80;;;40.30;1.00;;;;;;5113932;28;20205;-77
2022/08/14 07:55:55;;;;;;;2.95;2.70;;;40.20;1.00;;;;;;5114233;28;20174;-76
2022/08/14 07:58:21;;;;;;;3.15;2.78;;;41.40;1.00;;;;;;5113352;28;20171;-75
2022/08/14 08:00:46;;;;;;;3.35;2.90;;;37.90;1.00;;;;;;5114362;28;20170;-76
2022/08/14 08:03:13;;;;;;;2.60;2.40;;;36.70;1.00;;;;;;5113272;28;20159;-77
2022/08/14 08:05:40;;;;;;;2.38;2.20;;;35.90;1.00;;;;;;5113545;28;20185;-77
2022/08/14 08:08:07;;;;;;;3.45;2.40;;;35.80;1.00;;;;;;5113837;28;20167;-77
2022/08/14 08:10:35;;;;;;;2.25;2.05;;;36.10;1.00;;;;;;5113607;28;20214;-78
2022/08/14 08:13:14;;;;;;;3.08;2.35;;;36.40;1.00;;;;;;5113463;28;20155;-78
2022/08/14 08:15:43;;;;;;;2.65;2.47;;;36.30;1.00;;;;;;5113280;28;20178;-78
2022/08/14 08:18:12;;;;;;;2.50;2.40;;;36.00;1.00;;;;;;5113150;28;20215;-78
2022/08/14 08:20:42;;;;;;;5.93;2.78;;;35.90;1.00;;;;;;5113372;28;20262;-78
2022/08/14 08:23:09;;;;;;;4.00;3.03;;;36.20;1.00;;;;;;5113484;28;20199;-79
2022/08/14 08:25:37;;;;;;;5.15;2.75;;;34.70;1.00;;;;;;5113777;28;20209;-78
2022/08/14 08:28:08;;;;;;;2.53;2.42;;;34.10;1.00;;;;;;5113219;28;20268;-78
2022/08/14 08:30:39;;;;;;;2.72;2.53;;;33.80;1.00;;;;;;5112976;28;20256;-77
2022/08/14 08:33:06;;;;;;;2.58;2.38;;;33.60;1.00;;;;;;5094700;28;20622;-78
2022/08/14 08:35:34;;;;;;;4.68;2.10;;;33.70;1.00;;;;;;5113168;28;20174;-78
2022/08/14 08:38:22;;;;;;;5.22;3.17;;;33.80;1.00;;;;;;5094991;28;20171;-77
2022/08/14 08:40:50;;;;;;;2.30;2.10;;;33.70;1.00;;;;;;5113455;28;20709;-78
2022/08/14 08:43:30;;;;;;;2.42;2.33;;;34.00;1.00;;;;;;5113751;28;20175;-78
2022/08/14 08:46:05;;;;;;;2.45;2.13;;;34.50;1.00;;;;;;5112794;28;20242;-78
2022/08/14 08:48:44;;;;;;;2.42;2.22;;;35.30;1.00;;;;;;5112475;28;20180;-77
2022/08/14 08:51:23;;;;;;;2.60;2.42;;;35.50;1.00;;;;;;5112834;28;20206;-78
2022/08/14 08:54:00;;;;;;;2.45;2.10;;;35.40;1.00;;;;;;5113033;28;20163;-79
2022/08/14 08:56:52;;;;;;;2.45;2.15;;;35.00;1.00;;;;;;5113423;28;20201;-79
2022/08/14 08:59:27;;;;;;;2.08;1.90;;;35.20;1.00;;;;;;5108054;28;20654;-79
2022/08/14 09:01:57;;;;;;;3.25;2.10;;;35.00;1.00;;;;;;5112933;28;20249;-78
2022/08/14 09:04:25;;;;;;;2.30;2.15;;;34.50;1.00;;;;;;5113315;28;20164;-78
2022/08/14 09:06:51;;;;;;;2.22;2.05;;;34.50;1.00;;;;;;5112501;28;20529;-78
2022/08/14 09:09:22;;;;;;;2.55;2.40;;;34.20;1.00;;;;;;5095063;28;20171;-78
2022/08/14 09:11:48;;;;;;;2.17;2.08;;;33.70;1.00;;;;;;5113054;28;20589;-78
2022/08/14 09:14:14;;;;;;;2.10;2.00;;;33.60;1.00;;;;;;5112237;28;20181;-78
2022/08/14 09:16:40;;;;;;;2.58;2.17;;;33.70;1.00;;;;;;5112842;28;20301;-77
2022/08/14 09:19:06;;;;;;;5.03;2.45;;;34.00;1.00;;;;;;5112829;28;20163;-77
2022/08/14 09:21:33;;;;;;;2.70;2.30;;;34.40;1.00;;;;;;5112865;28;20163;-78
2022/08/14 09:24:00;;;;;;;2.53;1.90;;;34.50;1.00;;;;;;5113173;28;20171;-78
2022/08/14 09:26:25;;;;;;;2.40;2.20;;;34.00;1.00;;;;;;5112947;28;20176;-78
2022/08/14 09:28:51;;;;;;;2.53;1.95;;;33.50;1.00;;;;;;5112603;28;20156;-78
2022/08/14 09:31:19;;;;;;;2.47;2.28;;;33.30;1.00;;;;;;5113416;28;20214;-78
2022/08/14 09:34:23;;;;;;;3.15;2.00;;;33.40;1.00;;;;;;5113127;28;20168;-77
2022/08/14 09:37:21;;;;;;;3.45;1.80;;;34.00;1.00;;;;;;4994126;28;20179;-76
2022/08/14 09:40:01;;;;;;;2.17;2.00;;;34.30;1.00;;;;;;5010385;28;20198;-76
2022/08/14 09:42:50;;;;;;;2.08;1.98;;;33.70;1.00;;;;;;5010118;28;20186;-76
2022/08/14 09:45:27;;;;;;;1.80;1.70;;;33.30;1.00;;;;;;5011576;28;20210;-77
2022/08/14 09:47:56;;;;;;;2.30;2.20;;;32.70;1.00;;;;;;5013831;28;20182;-77
2022/08/14 09:50:21;;;;;;;3.90;1.70;;;32.10;1.00;;;;;;5013895;28;20234;-77
2022/08/14 09:52:52;;;;;;;2.13;2.00;;;32.40;1.00;;;;;;4997572;28;20735;-77
2022/08/14 09:55:19;;;;;;;2.95;2.75;;;32.30;1.00;;;;;;4997813;28;20197;-77
2022/08/14 09:57:45;;;;;;;4.20;2.10;;;32.50;1.00;;;;;;5013263;28;20584;-77
2022/08/14 10:00:13;;;;;;;2.15;1.95;;;32.50;1.00;;;;;;5013937;28;20210;-77
2022/08/14 10:02:50;;;;;;;2.13;2.03;;;32.50;1.00;;;;;;5013893;28;20253;-76
2022/08/14 10:05:28;;;;;;;2.13;2.03;;;33.20;1.00;;;;;;5012855;28;20170;-78
2022/08/14 10:07:54;;;;;;;2.22;2.13;;;34.10;1.00;;;;;;5013605;28;20175;-79
2022/08/14 10:10:29;;;;;;;2.15;1.95;;;34.50;1.00;;;;;;4996760;28;20207;-79
2022/08/14 10:12:56;;;;;;;1.88;1.77;;;34.50;1.00;;;;;;5022608;28;20170;-79
2022/08/14 10:15:24;;;;;;;2.10;1.83;;;34.60;1.00;;;;;;5115880;28;20231;-78
2022/08/14 10:18:08;;;;;;;2.10;2.00;;;34.60;1.00;;;;;;5115626;28;20214;-78
2022/08/14 10:20:50;;;;;;;3.33;2.13;;;34.50;1.00;;;;;;5115453;28;20159;-78
2022/08/14 10:23:18;;;;;;;2.20;2.10;;;34.30;1.00;;;;;;5115708;28;20220;-78
2022/08/14 10:25:50;;;;;;;2.10;2.00;;;34.10;1.00;;;;;;5115422;28;20195;-78
2022/08/14 10:28:21;;;;;;;2.63;2.03;;;34.30;1.00;;;;;;5115340;28;20195;-79
2022/08/14 10:30:51;;;;;;;2.10;1.90;;;34.30;1.00;;;;;;5115757;28;20290;-80
2022/08/14 10:33:32;;;;;;;2.15;1.98;;;34.20;1.00;;;;;;5115437;28;20176;-80
2022/08/14 10:36:02;;;;;;;2.20;2.10;;;34.60;1.00;;;;;;5115424;28;20183;-80
2022/08/14 10:38:33;;;;;;;4.75;1.98;;;34.80;1.00;;;;;;5097327;28;20175;-80
2022/08/14 10:41:13;;;;;;;1.90;1.80;;;35.50;1.00;;;;;;5114846;28;20163;-80
2022/08/14 10:43:40;;;;;;;3.70;1.90;;;35.60;1.00;;;;;;5116217;28;20202;-79
2022/08/14 10:46:17;;;;;;;1.70;1.60;;;36.70;1.00;;;;;;5114900;28;20653;-80
2022/08/14 10:48:56;;;;;;;2.50;1.65;;;37.00;1.00;;;;;;5117405;28;20167;-78
2022/08/14 10:51:26;;;;;;;2.15;1.98;;;36.40;1.00;;;;;;5115672;28;20669;-80
2022/08/14 10:53:57;;;;;;;1.83;1.60;;;36.30;1.00;;;;;;5096916;28;20653;-79
2022/08/14 10:56:32;;;;;;;2.58;1.77;;;35.40;1.00;;;;;;5113841;28;20163;-78
2022/08/14 10:59:06;;;;;;;2.90;2.00;;;35.70;1.00;;;;;;5114991;28;20167;-80
2022/08/14 11:01:35;;;;;;;2.63;2.42;;;36.40;1.00;;;;;;5115159;28;20166;-79
2022/08/14 11:04:01;;;;;;;3.88;3.65;;;35.60;1.00;;;;;;5114179;28;20245;-79
2022/08/14 11:06:29;;;;;;;3.83;2.03;;;33.40;1.00;;;;;;5114761;28;20209;-78
2022/08/14 11:08:55;;;;;;;5.47;5.00;;;33.50;1.00;;;;;;5114792;28;20166;-80
2022/08/14 11:11:25;;;;;;;2.22;2.13;;;33.20;1.00;;;;;;5114223;28;20207;-79
2022/08/14 11:13:56;;;;;;;2.33;2.20;;;33.30;1.00;;;;;;5114616;28;20175;-80
2022/08/14 11:16:23;;;;;;;3.70;2.30;;;33.00;1.00;;;;;;5096254;28;20226;-79
2022/08/14 11:18:50;;;;;;;2.70;2.28;;;32.90;1.00;;;;;;5114262;28;20195;-79
2022/08/14 11:21:21;;;;;;;3.10;2.90;;;33.00;1.00;;;;;;5114225;28;20175;-80
2022/08/14 11:23:48;;;;;;;2.10;2.00;;;33.20;1.00;;;;;;5096472;28;20185;-80
2022/08/14 11:26:19;;;;;;;2.17;1.85;;;33.60;1.00;;;;;;5114235;28;20250;-80
2022/08/14 11:28:48;;;;;;;1.88;1.77;;;33.90;1.00;;;;;;5114434;28;20178;-81
2022/08/14 11:31:15;;;;;;;2.15;2.05;;;34.50;1.00;;;;;;5114462;28;20211;-80
2022/08/14 11:33:41;;;;;;;2.50;2.30;;;34.90;1.00;;;;;;5114517;28;20220;-81
2022/08/14 11:36:09;;;;;;;2.10;1.98;;;35.40;1.00;;;;;;5114329;28;20163;-81
2022/08/14 11:38:39;;;;;;;3.22;2.20;;;35.50;1.00;;;;;;5113604;28;20600;-79
2022/08/14 11:41:06;;;;;;;3.58;2.53;;;34.00;1.00;;;;;;5113949;28;20202;-78
2022/08/14 11:43:36;;;;;;;2.97;2.80;;;33.30;1.00;;;;;;5114004;28;20160;-78
2022/08/14 11:46:02;;;;;;;3.35;2.10;;;32.90;1.00;;;;;;5095956;28;20178;-78
2022/08/14 11:48:28;;;;;;;2.40;2.17;;;32.50;1.00;;;;;;5113715;28;20495;-78
2022/08/14 11:50:54;;;;;;;2.20;2.03;;;33.20;1.00;;;;;;5095580;28;20273;-78
2022/08/14 11:53:27;;;;;;;2.30;2.20;;;34.20;1.00;;;;;;5095561;28;20500;-78
2022/08/14 11:55:57;;;;;;;2.10;2.00;;;35.30;1.00;;;;;;5114110;28;20199;-79
2022/08/14 11:58:29;;;;;;;2.63;2.00;;;35.50;1.00;;;;;;5113495;28;20190;-80
2022/08/14 12:00:58;;;;;;;1.80;1.70;;;34.90;1.00;;;;;;5113823;28;20254;-79
2022/08/14 12:03:51;;;;;;;2.13;2.03;;;34.80;1.00;;;;;;5113289;28;20194;-80
2022/08/14 12:06:19;;;;;;;1.70;1.70;;;34.90;1.00;;;;;;5113610;28;20175;-79
2022/08/14 12:08:45;;;;;;;2.30;2.10;;;34.50;1.00;;;;;;5113028;28;20178;-79
2022/08/14 12:11:13;;;;;;;5.85;1.67;;;34.30;1.00;;;;;;5113483;28;20207;-79
2022/08/14 12:13:40;;;;;;;1.95;1.75;;;34.20;1.00;;;;;;5113573;28;20209;-80
2022/08/14 12:16:11;;;;;;;3.63;1.80;;;34.20;1.00;;;;;;5113241;28;20160;-79
2022/08/14 12:18:47;;;;;;;2.20;2.10;;;34.50;1.00;;;;;;5113300;28;20207;-79
2022/08/14 12:21:13;;;;;;;8.48;2.80;;;34.40;1.00;;;;;;5113417;28;20664;-79
2022/08/14 12:23:39;;;;;;;2.70;2.05;;;33.90;1.00;;;;;;5113365;28;20173;-77
2022/08/14 12:26:09;;;;;;;2.38;2.17;;;33.30;1.00;;;;;;5113264;28;20614;-78
2022/08/14 12:28:35;;;;;;;2.25;2.05;;;33.60;1.00;;;;;;5095310;28;20179;-77
2022/08/14 12:31:16;;;;;;;2.45;1.85;;;33.60;1.00;;;;;;5112662;28;20249;-78
2022/08/14 12:33:42;;;;;;;1.80;1.70;;;33.30;1.00;;;;;;5113457;28;20167;-78
2022/08/14 12:36:19;;;;;;;4.28;2.20;;;33.10;1.00;;;;;;5113122;28;20179;-77
2022/08/14 12:38:47;;;;;;;1.80;1.70;;;33.10;1.00;;;;;;5113235;28;20236;-77
2022/08/14 12:41:18;;;;;;;2.40;2.20;;;33.00;1.00;;;;;;5112929;28;20159;-77
2022/08/14 12:43:56;;;;;;;2.38;1.92;;;33.10;1.00;;;;;;5113610;28;20196;-77
2022/08/14 12:46:24;;;;;;;2.05;1.95;;;33.20;1.00;;;;;;5113008;28;20174;-77
2022/08/14 12:48:50;;;;;;;1.60;1.50;;;33.10;1.00;;;;;;5113465;28;20186;-76
2022/08/14 12:51:21;;;;;;;1.77;1.70;;;33.10;1.00;;;;;;5112817;28;20355;-77
2022/08/14 12:53:47;;;;;;;2.15;2.05;;;33.10;1.00;;;;;;5109423;28;20220;-77
2022/08/14 12:56:18;;;;;;;3.60;1.83;;;33.20;1.00;;;;;;5113331;28;20210;-77
2022/08/14 12:58:49;;;;;;;1.95;1.65;;;33.10;1.00;;;;;;5112517;28;20220;-77
2022/08/14 13:01:20;;;;;;;1.58;1.58;;;33.20;1.00;;;;;;5112944;28;20159;-77
2022/08/14 13:03:46;;;;;;;2.15;1.70;;;33.30;1.00;;;;;;5113159;28;20175;-77
2022/08/14 13:06:13;;;;;;;2.33;2.10;;;33.40;1.00;;;;;;5112668;28;20276;-77
2022/08/14 13:08:41;;;;;;;1.70;1.60;;;33.70;1.00;;;;;;5095301;28;20175;-75
2022/08/14 13:11:13;;;;;;;1.40;1.40;;;33.50;1.00;;;;;;5112890;28;20232;-77
2022/08/14 13:13:46;;;;;;;2.60;2.40;;;33.70;1.00;;;;;;5113203;28;20191;-77
2022/08/14 13:16:15;;;;;;;1.50;1.50;;;33.60;1.00;;;;;;5112310;28;20246;-76
2022/08/14 13:18:42;;;;;;;3.30;2.22;;;33.50;1.00;;;;;;5113242;28;20248;-76